sensor_id;sensor_type;location;lat;lon;timestamp;temperature;humidity
78461;SHT31;67755;51.986;5.696;2024-03-29T00:00:44;12.1;53.3
78461;SHT31;67755;51.986;5.696;2024-03-29T00:03:13;12.1;53.7
78461;SHT31;67755;51.986;5.696;2024-03-29T00:05:43;12.1;53.9
78461;SHT31;67755;51.986;5.696;2024-03-29T00:08:11;12.1;53.5
78461;SHT31;67755;51.986;5.696;2024-03-29T00:10:40;12.1;54.0
78461;SHT31;67755;51.986;5.696;2024-03-29T00:13:08;12.1;53.4
78461;SHT31;67755;51.986;5.696;2024-03-29T00:15:37;12.0;53.5
78461;SHT31;67755;51.986;5.696;2024-03-29T00:18:08;12.0;54.3
78461;SHT31;67755;51.986;5.696;2024-03-29T00:20:36;12.0;54.0
78461;SHT31;67755;51.986;5.696;2024-03-29T00:23:07;12.0;53.4
78461;SHT31;67755;51.986;5.696;2024-03-29T00:25:35;12.0;54.2
78461;SHT31;67755;51.986;5.696;2024-03-29T00:28:04;12.0;53.4
78461;SHT31;67755;51.986;5.696;2024-03-29T00:30:33;12.0;54.3
78461;SHT31;67755;51.986;5.696;2024-03-29T00:33:02;12.0;53.5
78461;SHT31;67755;51.986;5.696;2024-03-29T00:35:31;12.0;54.4
78461;SHT31;67755;51.986;5.696;2024-03-29T00:38:00;12.0;54.4
78461;SHT31;67755;51.986;5.696;2024-03-29T00:40:28;12.0;53.8
78461;SHT31;67755;51.986;5.696;2024-03-29T00:42:56;11.9;54.3
78461;SHT31;67755;51.986;5.696;2024-03-29T00:45:25;11.9;54.7
78461;SHT31;67755;51.986;5.696;2024-03-29T00:47:55;11.9;54.4
78461;SHT31;67755;51.986;5.696;2024-03-29T00:50:23;11.9;54.2
78461;SHT31;67755;51.986;5.696;2024-03-29T00:52:52;11.9;54.0
78461;SHT31;67755;51.986;5.696;2024-03-29T00:55:22;11.9;54.3
78461;SHT31;67755;51.986;5.696;2024-03-29T00:57:50;11.9;54.5
78461;SHT31;67755;51.986;5.696;2024-03-29T01:00:19;11.9;53.9
78461;SHT31;67755;51.986;5.696;2024-03-29T01:02:48;11.9;54.2
78461;SHT31;67755;51.986;5.696;2024-03-29T01:05:17;11.9;54.0
78461;SHT31;67755;51.986;5.696;2024-03-29T01:07:47;11.9;53.8
78461;SHT31;67755;51.986;5.696;2024-03-29T01:10:15;11.9;54.0
78461;SHT31;67755;51.986;5.696;2024-03-29T01:12:46;11.9;54.7
78461;SHT31;67755;51.986;5.696;2024-03-29T01:15:14;11.9;53.6
78461;SHT31;67755;51.986;5.696;2024-03-29T01:17:42;11.8;54.0
78461;SHT31;67755;51.986;5.696;2024-03-29T01:20:11;11.8;53.9
78461;SHT31;67755;51.986;5.696;2024-03-29T01:22:40;11.8;54.4
78461;SHT31;67755;51.986;5.696;2024-03-29T01:25:09;11.8;54.1
78461;SHT31;67755;51.986;5.696;2024-03-29T01:27:39;11.8;54.2
78461;SHT31;67755;51.986;5.696;2024-03-29T01:30:09;11.8;54.3
78461;SHT31;67755;51.986;5.696;2024-03-29T01:32:37;11.8;54.7
78461;SHT31;67755;51.986;5.696;2024-03-29T01:35:06;11.8;53.8
78461;SHT31;67755;51.986;5.696;2024-03-29T01:37:35;11.8;54.4
78461;SHT31;67755;51.986;5.696;2024-03-29T01:40:06;11.8;54.3
78461;SHT31;67755;51.986;5.696;2024-03-29T01:42:34;11.8;54.3
78461;SHT31;67755;51.986;5.696;2024-03-29T01:45:03;11.8;54.2
78461;SHT31;67755;51.986;5.696;2024-03-29T01:47:31;11.8;54.0
78461;SHT31;67755;51.986;5.696;2024-03-29T01:50:00;11.8;54.8
78461;SHT31;67755;51.986;5.696;2024-03-29T01:52:31;11.8;54.0
78461;SHT31;67755;51.986;5.696;2024-03-29T01:55:00;11.8;54.3
78461;SHT31;67755;51.986;5.696;2024-03-29T01:57:29;11.7;54.6
78461;SHT31;67755;51.986;5.696;2024-03-29T01:59:59;11.7;54.6
78461;SHT31;67755;51.986;5.696;2024-03-29T02:02:31;11.7;54.7
78461;SHT31;67755;51.986;5.696;2024-03-29T02:05:01;11.7;55.2
78461;SHT31;67755;51.986;5.696;2024-03-29T02:07:31;11.7;54.6
78461;SHT31;67755;51.986;5.696;2024-03-29T02:10:00;11.7;54.7
78461;SHT31;67755;51.986;5.696;2024-03-29T02:12:29;11.7;54.9
78461;SHT31;67755;51.986;5.696;2024-03-29T02:15:00;11.7;54.6
78461;SHT31;67755;51.986;5.696;2024-03-29T02:17:28;11.6;55.0
78461;SHT31;67755;51.986;5.696;2024-03-29T02:19:57;11.6;54.9
78461;SHT31;67755;51.986;5.696;2024-03-29T02:22:29;11.6;54.7
78461;SHT31;67755;51.986;5.696;2024-03-29T02:24:58;11.6;54.5
78461;SHT31;67755;51.986;5.696;2024-03-29T02:27:31;11.6;54.7
78461;SHT31;67755;51.986;5.696;2024-03-29T02:29:59;11.6;54.8
78461;SHT31;67755;51.986;5.696;2024-03-29T02:32:28;11.6;54.4
78461;SHT31;67755;51.986;5.696;2024-03-29T02:34:58;11.6;54.1
78461;SHT31;67755;51.986;5.696;2024-03-29T02:37:26;11.6;54.3
78461;SHT31;67755;51.986;5.696;2024-03-29T02:39:55;11.5;54.4
78461;SHT31;67755;51.986;5.696;2024-03-29T02:42:23;11.5;54.9
78461;SHT31;67755;51.986;5.696;2024-03-29T02:44:52;11.5;55.0
78461;SHT31;67755;51.986;5.696;2024-03-29T02:47:22;11.5;54.8
78461;SHT31;67755;51.986;5.696;2024-03-29T02:49:51;11.5;54.5
78461;SHT31;67755;51.986;5.696;2024-03-29T02:52:20;11.6;54.8
78461;SHT31;67755;51.986;5.696;2024-03-29T02:54:49;11.6;54.7
78461;SHT31;67755;51.986;5.696;2024-03-29T02:57:17;11.6;55.2
78461;SHT31;67755;51.986;5.696;2024-03-29T02:59:46;11.6;55.3
78461;SHT31;67755;51.986;5.696;2024-03-29T03:02:14;11.6;54.7
78461;SHT31;67755;51.986;5.696;2024-03-29T03:04:42;11.6;54.9
78461;SHT31;67755;51.986;5.696;2024-03-29T03:07:11;11.6;55.3
78461;SHT31;67755;51.986;5.696;2024-03-29T03:09:56;11.6;54.7
78461;SHT31;67755;51.986;5.696;2024-03-29T03:12:40;11.6;54.6
78461;SHT31;67755;51.986;5.696;2024-03-29T03:15:09;11.6;55.2
78461;SHT31;67755;51.986;5.696;2024-03-29T03:17:38;11.6;55.2
78461;SHT31;67755;51.986;5.696;2024-03-29T03:20:07;11.6;54.7
78461;SHT31;67755;51.986;5.696;2024-03-29T03:22:36;11.7;55.0
78461;SHT31;67755;51.986;5.696;2024-03-29T03:25:05;11.7;54.3
78461;SHT31;67755;51.986;5.696;2024-03-29T03:27:34;11.7;55.0
78461;SHT31;67755;51.986;5.696;2024-03-29T03:30:02;11.7;55.3
78461;SHT31;67755;51.986;5.696;2024-03-29T03:32:31;11.7;54.9
78461;SHT31;67755;51.986;5.696;2024-03-29T03:34:59;11.7;54.9
78461;SHT31;67755;51.986;5.696;2024-03-29T03:37:28;11.7;54.8
78461;SHT31;67755;51.986;5.696;2024-03-29T03:39:56;11.7;54.5
78461;SHT31;67755;51.986;5.696;2024-03-29T03:42:25;11.7;54.7
78461;SHT31;67755;51.986;5.696;2024-03-29T03:44:55;11.8;54.7
78461;SHT31;67755;51.986;5.696;2024-03-29T03:47:23;11.8;54.6
78461;SHT31;67755;51.986;5.696;2024-03-29T03:49:52;11.8;54.8
78461;SHT31;67755;51.986;5.696;2024-03-29T03:52:20;11.8;54.4
78461;SHT31;67755;51.986;5.696;2024-03-29T03:54:49;11.8;54.1
78461;SHT31;67755;51.986;5.696;2024-03-29T03:57:17;11.8;54.7
78461;SHT31;67755;51.986;5.696;2024-03-29T03:59:46;11.8;54.8
78461;SHT31;67755;51.986;5.696;2024-03-29T04:02:14;11.9;55.6
78461;SHT31;67755;51.986;5.696;2024-03-29T04:04:46;11.9;55.6
78461;SHT31;67755;51.986;5.696;2024-03-29T04:07:15;11.9;54.8
78461;SHT31;67755;51.986;5.696;2024-03-29T04:09:43;11.9;55.3
78461;SHT31;67755;51.986;5.696;2024-03-29T04:12:12;11.9;55.2
78461;SHT31;67755;51.986;5.696;2024-03-29T04:14:41;11.9;56.3
78461;SHT31;67755;51.986;5.696;2024-03-29T04:17:09;11.9;56.6
78461;SHT31;67755;51.986;5.696;2024-03-29T04:19:38;11.9;56.2
78461;SHT31;67755;51.986;5.696;2024-03-29T04:22:09;11.9;57.0
78461;SHT31;67755;51.986;5.696;2024-03-29T04:24:37;12.0;57.5
78461;SHT31;67755;51.986;5.696;2024-03-29T04:27:06;12.0;57.4
78461;SHT31;67755;51.986;5.696;2024-03-29T04:29:36;12.0;58.0
78461;SHT31;67755;51.986;5.696;2024-03-29T04:32:05;12.0;58.0
78461;SHT31;67755;51.986;5.696;2024-03-29T04:34:34;12.0;58.2
78461;SHT31;67755;51.986;5.696;2024-03-29T04:37:02;12.0;57.9
78461;SHT31;67755;51.986;5.696;2024-03-29T04:39:31;12.0;57.5
78461;SHT31;67755;51.986;5.696;2024-03-29T04:41:59;12.0;57.6
78461;SHT31;67755;51.986;5.696;2024-03-29T04:44:28;12.0;58.7
78461;SHT31;67755;51.986;5.696;2024-03-29T04:46:56;12.0;59.3
78461;SHT31;67755;51.986;5.696;2024-03-29T04:49:25;12.0;59.2
78461;SHT31;67755;51.986;5.696;2024-03-29T04:51:58;12.0;59.9
78461;SHT31;67755;51.986;5.696;2024-03-29T04:54:27;12.0;60.9
78461;SHT31;67755;51.986;5.696;2024-03-29T04:56:57;12.0;61.5
78461;SHT31;67755;51.986;5.696;2024-03-29T04:59:26;12.0;61.7
78461;SHT31;67755;51.986;5.696;2024-03-29T05:01:54;12.0;61.8
78461;SHT31;67755;51.986;5.696;2024-03-29T05:04:23;12.0;61.5
78461;SHT31;67755;51.986;5.696;2024-03-29T05:06:54;12.0;62.2
78461;SHT31;67755;51.986;5.696;2024-03-29T05:09:23;12.0;63.2
78461;SHT31;67755;51.986;5.696;2024-03-29T05:11:52;12.0;62.6
78461;SHT31;67755;51.986;5.696;2024-03-29T05:14:21;12.0;62.8
78461;SHT31;67755;51.986;5.696;2024-03-29T05:16:50;12.0;63.2
78461;SHT31;67755;51.986;5.696;2024-03-29T05:19:19;12.0;63.5
78461;SHT31;67755;51.986;5.696;2024-03-29T05:21:48;12.0;63.5
78461;SHT31;67755;51.986;5.696;2024-03-29T05:24:16;12.0;64.2
78461;SHT31;67755;51.986;5.696;2024-03-29T05:26:45;12.0;64.6
78461;SHT31;67755;51.986;5.696;2024-03-29T05:29:13;11.9;64.1
78461;SHT31;67755;51.986;5.696;2024-03-29T05:31:42;11.9;64.7
78461;SHT31;67755;51.986;5.696;2024-03-29T05:34:10;11.9;64.5
78461;SHT31;67755;51.986;5.696;2024-03-29T05:36:39;11.9;64.7
78461;SHT31;67755;51.986;5.696;2024-03-29T05:39:07;11.9;65.2
78461;SHT31;67755;51.986;5.696;2024-03-29T05:41:36;11.9;65.7
78461;SHT31;67755;51.986;5.696;2024-03-29T05:44:07;11.8;65.4
78461;SHT31;67755;51.986;5.696;2024-03-29T05:46:35;11.8;65.3
78461;SHT31;67755;51.986;5.696;2024-03-29T05:49:07;11.8;65.8
78461;SHT31;67755;51.986;5.696;2024-03-29T05:51:35;11.8;65.8
78461;SHT31;67755;51.986;5.696;2024-03-29T05:54:06;11.8;65.9
78461;SHT31;67755;51.986;5.696;2024-03-29T05:56:34;11.8;65.8
78461;SHT31;67755;51.986;5.696;2024-03-29T05:59:03;11.8;65.8
78461;SHT31;67755;51.986;5.696;2024-03-29T06:01:31;11.8;66.1
78461;SHT31;67755;51.986;5.696;2024-03-29T06:04:01;11.8;66.1
78461;SHT31;67755;51.986;5.696;2024-03-29T06:06:37;11.8;66.4
78461;SHT31;67755;51.986;5.696;2024-03-29T06:09:06;11.8;66.1
78461;SHT31;67755;51.986;5.696;2024-03-29T06:11:34;11.8;66.3
78461;SHT31;67755;51.986;5.696;2024-03-29T06:14:02;11.8;66.4
78461;SHT31;67755;51.986;5.696;2024-03-29T06:16:47;11.8;66.4
78461;SHT31;67755;51.986;5.696;2024-03-29T06:19:33;11.8;66.4
78461;SHT31;67755;51.986;5.696;2024-03-29T06:22:02;11.8;66.6
78461;SHT31;67755;51.986;5.696;2024-03-29T06:24:30;11.8;66.6
78461;SHT31;67755;51.986;5.696;2024-03-29T06:26:59;11.8;66.7
78461;SHT31;67755;51.986;5.696;2024-03-29T06:29:30;11.9;66.9
78461;SHT31;67755;51.986;5.696;2024-03-29T06:31:58;11.9;67.1
78461;SHT31;67755;51.986;5.696;2024-03-29T06:34:29;11.9;67.0
78461;SHT31;67755;51.986;5.696;2024-03-29T06:36:58;11.9;66.3
78461;SHT31;67755;51.986;5.696;2024-03-29T06:39:27;11.9;66.8
78461;SHT31;67755;51.986;5.696;2024-03-29T06:41:55;11.9;67.2
78461;SHT31;67755;51.986;5.696;2024-03-29T06:44:24;11.9;67.3
78461;SHT31;67755;51.986;5.696;2024-03-29T06:46:52;11.9;67.2
78461;SHT31;67755;51.986;5.696;2024-03-29T06:49:21;11.9;67.3
78461;SHT31;67755;51.986;5.696;2024-03-29T06:51:49;11.9;67.2
78461;SHT31;67755;51.986;5.696;2024-03-29T06:54:20;11.9;67.1
78461;SHT31;67755;51.986;5.696;2024-03-29T06:56:55;11.9;67.0
78461;SHT31;67755;51.986;5.696;2024-03-29T06:59:23;12.0;67.1
78461;SHT31;67755;51.986;5.696;2024-03-29T07:01:52;12.0;66.9
78461;SHT31;67755;51.986;5.696;2024-03-29T07:04:22;12.0;67.1
78461;SHT31;67755;51.986;5.696;2024-03-29T07:06:51;12.0;67.2
78461;SHT31;67755;51.986;5.696;2024-03-29T07:09:22;12.0;67.4
78461;SHT31;67755;51.986;5.696;2024-03-29T07:11:51;12.0;67.4
78461;SHT31;67755;51.986;5.696;2024-03-29T07:14:21;12.0;67.4
78461;SHT31;67755;51.986;5.696;2024-03-29T07:16:54;12.0;67.2
78461;SHT31;67755;51.986;5.696;2024-03-29T07:19:25;12.0;67.4
78461;SHT31;67755;51.986;5.696;2024-03-29T07:21:53;11.9;67.6
78461;SHT31;67755;51.986;5.696;2024-03-29T07:24:21;11.9;67.7
78461;SHT31;67755;51.986;5.696;2024-03-29T07:26:50;11.9;68.0
78461;SHT31;67755;51.986;5.696;2024-03-29T07:29:18;11.9;67.7
78461;SHT31;67755;51.986;5.696;2024-03-29T07:31:47;11.9;67.8
78461;SHT31;67755;51.986;5.696;2024-03-29T07:34:17;11.9;67.9
78461;SHT31;67755;51.986;5.696;2024-03-29T07:36:45;11.9;67.9
78461;SHT31;67755;51.986;5.696;2024-03-29T07:39:16;11.9;67.8
78461;SHT31;67755;51.986;5.696;2024-03-29T07:41:45;12.0;67.9
78461;SHT31;67755;51.986;5.696;2024-03-29T07:44:14;12.0;68.3
78461;SHT31;67755;51.986;5.696;2024-03-29T07:46:42;12.0;68.2
78461;SHT31;67755;51.986;5.696;2024-03-29T07:49:13;12.0;68.3
78461;SHT31;67755;51.986;5.696;2024-03-29T07:51:43;12.0;68.4
78461;SHT31;67755;51.986;5.696;2024-03-29T07:54:12;12.0;68.3
78461;SHT31;67755;51.986;5.696;2024-03-29T07:56:40;12.0;67.9
78461;SHT31;67755;51.986;5.696;2024-03-29T07:59:11;12.0;68.2
78461;SHT31;67755;51.986;5.696;2024-03-29T08:01:39;12.0;68.5
78461;SHT31;67755;51.986;5.696;2024-03-29T08:04:09;12.0;68.9
78461;SHT31;67755;51.986;5.696;2024-03-29T08:06:38;12.1;68.7
78461;SHT31;67755;51.986;5.696;2024-03-29T08:09:08;12.1;68.4
78461;SHT31;67755;51.986;5.696;2024-03-29T08:11:40;12.1;68.3
78461;SHT31;67755;51.986;5.696;2024-03-29T08:14:08;12.1;68.2
78461;SHT31;67755;51.986;5.696;2024-03-29T08:16:37;12.1;68.6
78461;SHT31;67755;51.986;5.696;2024-03-29T08:19:05;12.1;67.8
78461;SHT31;67755;51.986;5.696;2024-03-29T08:21:34;12.1;68.2
78461;SHT31;67755;51.986;5.696;2024-03-29T08:24:03;12.2;68.0
78461;SHT31;67755;51.986;5.696;2024-03-29T08:26:31;12.2;68.2
78461;SHT31;67755;51.986;5.696;2024-03-29T08:29:01;12.2;68.0
78461;SHT31;67755;51.986;5.696;2024-03-29T08:31:31;12.2;68.0
78461;SHT31;67755;51.986;5.696;2024-03-29T08:33:59;12.2;68.6
78461;SHT31;67755;51.986;5.696;2024-03-29T08:36:28;12.2;68.8
78461;SHT31;67755;51.986;5.696;2024-03-29T08:38:58;12.2;69.0
78461;SHT31;67755;51.986;5.696;2024-03-29T08:41:27;12.2;69.1
78461;SHT31;67755;51.986;5.696;2024-03-29T08:43:55;12.2;69.2
78461;SHT31;67755;51.986;5.696;2024-03-29T08:46:24;12.3;68.9
78461;SHT31;67755;51.986;5.696;2024-03-29T08:48:54;12.3;69.2
78461;SHT31;67755;51.986;5.696;2024-03-29T08:51:24;12.3;68.6
78461;SHT31;67755;51.986;5.696;2024-03-29T08:53:54;12.3;68.6
78461;SHT31;67755;51.986;5.696;2024-03-29T08:56:24;12.4;68.6
78461;SHT31;67755;51.986;5.696;2024-03-29T08:58:52;12.4;69.0
78461;SHT31;67755;51.986;5.696;2024-03-29T09:01:21;12.4;69.1
78461;SHT31;67755;51.986;5.696;2024-03-29T09:03:49;12.4;69.7
78461;SHT31;67755;51.986;5.696;2024-03-29T09:06:18;12.5;68.4
78461;SHT31;67755;51.986;5.696;2024-03-29T09:08:46;12.5;70.4
78461;SHT31;67755;51.986;5.696;2024-03-29T09:11:15;12.6;69.7
78461;SHT31;67755;51.986;5.696;2024-03-29T09:13:45;12.6;69.5
78461;SHT31;67755;51.986;5.696;2024-03-29T09:16:13;12.7;69.4
78461;SHT31;67755;51.986;5.696;2024-03-29T09:18:42;12.8;70.8
78461;SHT31;67755;51.986;5.696;2024-03-29T09:21:10;12.8;71.0
78461;SHT31;67755;51.986;5.696;2024-03-29T09:23:38;12.8;70.2
78461;SHT31;67755;51.986;5.696;2024-03-29T09:26:08;12.9;69.4
78461;SHT31;67755;51.986;5.696;2024-03-29T09:28:37;12.9;70.7
78461;SHT31;67755;51.986;5.696;2024-03-29T09:31:07;13.0;71.4
78461;SHT31;67755;51.986;5.696;2024-03-29T09:33:36;13.1;73.4
78461;SHT31;67755;51.986;5.696;2024-03-29T09:36:07;13.1;71.3
78461;SHT31;67755;51.986;5.696;2024-03-29T09:38:39;13.2;72.2
78461;SHT31;67755;51.986;5.696;2024-03-29T09:41:13;13.3;72.8
78461;SHT31;67755;51.986;5.696;2024-03-29T09:43:44;13.3;71.7
78461;SHT31;67755;51.986;5.696;2024-03-29T09:46:15;13.4;73.4
78461;SHT31;67755;51.986;5.696;2024-03-29T09:48:44;13.5;72.7
78461;SHT31;67755;51.986;5.696;2024-03-29T09:51:16;13.6;72.1
78461;SHT31;67755;51.986;5.696;2024-03-29T09:53:46;13.7;68.9
78461;SHT31;67755;51.986;5.696;2024-03-29T09:56:14;13.8;68.4
78461;SHT31;67755;51.986;5.696;2024-03-29T09:58:45;13.8;67.2
78461;SHT31;67755;51.986;5.696;2024-03-29T10:01:13;13.9;67.2
78461;SHT31;67755;51.986;5.696;2024-03-29T10:03:45;14.0;66.2
78461;SHT31;67755;51.986;5.696;2024-03-29T10:06:19;14.0;65.7
78461;SHT31;67755;51.986;5.696;2024-03-29T10:08:48;14.1;65.1
78461;SHT31;67755;51.986;5.696;2024-03-29T10:11:19;14.1;65.8
78461;SHT31;67755;51.986;5.696;2024-03-29T10:13:50;14.1;64.2
78461;SHT31;67755;51.986;5.696;2024-03-29T10:16:20;14.1;65.4
78461;SHT31;67755;51.986;5.696;2024-03-29T10:18:50;14.2;64.4
78461;SHT31;67755;51.986;5.696;2024-03-29T10:21:24;14.2;65.3
78461;SHT31;67755;51.986;5.696;2024-03-29T10:23:54;14.2;65.2
78461;SHT31;67755;51.986;5.696;2024-03-29T10:26:23;14.2;65.9
78461;SHT31;67755;51.986;5.696;2024-03-29T10:28:51;14.3;65.0
78461;SHT31;67755;51.986;5.696;2024-03-29T10:31:22;14.3;66.6
78461;SHT31;67755;51.986;5.696;2024-03-29T10:33:51;14.4;65.8
78461;SHT31;67755;51.986;5.696;2024-03-29T10:36:25;14.4;64.2
78461;SHT31;67755;51.986;5.696;2024-03-29T10:38:53;14.4;64.8
78461;SHT31;67755;51.986;5.696;2024-03-29T10:41:24;14.5;65.3
78461;SHT31;67755;51.986;5.696;2024-03-29T10:43:56;14.5;65.0
78461;SHT31;67755;51.986;5.696;2024-03-29T10:46:31;14.6;64.9
78461;SHT31;67755;51.986;5.696;2024-03-29T10:49:01;14.6;65.0
78461;SHT31;67755;51.986;5.696;2024-03-29T10:51:31;14.7;64.7
78461;SHT31;67755;51.986;5.696;2024-03-29T10:54:02;14.8;62.7
78461;SHT31;67755;51.986;5.696;2024-03-29T10:56:33;14.8;63.7
78461;SHT31;67755;51.986;5.696;2024-03-29T10:59:11;14.9;63.2
78461;SHT31;67755;51.986;5.696;2024-03-29T11:01:44;15.0;62.4
78461;SHT31;67755;51.986;5.696;2024-03-29T11:04:25;15.0;61.5
78461;SHT31;67755;51.986;5.696;2024-03-29T11:06:58;15.0;62.0
78461;SHT31;67755;51.986;5.696;2024-03-29T11:09:31;15.1;61.6
78461;SHT31;67755;51.986;5.696;2024-03-29T11:12:02;15.1;61.8
78461;SHT31;67755;51.986;5.696;2024-03-29T11:14:37;15.1;61.2
78461;SHT31;67755;51.986;5.696;2024-03-29T11:17:10;15.2;61.2
78461;SHT31;67755;51.986;5.696;2024-03-29T11:19:41;15.2;60.7
78461;SHT31;67755;51.986;5.696;2024-03-29T11:22:11;15.2;59.5
78461;SHT31;67755;51.986;5.696;2024-03-29T11:24:40;15.3;59.4
78461;SHT31;67755;51.986;5.696;2024-03-29T11:27:09;15.3;59.4
78461;SHT31;67755;51.986;5.696;2024-03-29T11:29:41;15.3;58.9
78461;SHT31;67755;51.986;5.696;2024-03-29T11:32:12;15.3;60.7
78461;SHT31;67755;51.986;5.696;2024-03-29T11:34:53;15.3;61.2
78461;SHT31;67755;51.986;5.696;2024-03-29T11:37:31;15.4;60.7
78461;SHT31;67755;51.986;5.696;2024-03-29T11:40:00;15.4;59.8
78461;SHT31;67755;51.986;5.696;2024-03-29T11:42:46;15.5;58.7
78461;SHT31;67755;51.986;5.696;2024-03-29T11:45:15;15.5;59.2
78461;SHT31;67755;51.986;5.696;2024-03-29T11:47:44;15.5;57.3
78461;SHT31;67755;51.986;5.696;2024-03-29T11:50:13;15.6;58.5
78461;SHT31;67755;51.986;5.696;2024-03-29T11:52:42;15.6;58.6
78461;SHT31;67755;51.986;5.696;2024-03-29T11:55:13;15.6;60.0
78461;SHT31;67755;51.986;5.696;2024-03-29T11:57:41;15.6;58.0
78461;SHT31;67755;51.986;5.696;2024-03-29T12:00:13;15.7;58.0
78461;SHT31;67755;51.986;5.696;2024-03-29T12:02:41;15.7;57.8
78461;SHT31;67755;51.986;5.696;2024-03-29T12:05:12;15.7;57.1
78461;SHT31;67755;51.986;5.696;2024-03-29T12:07:42;15.7;58.4
78461;SHT31;67755;51.986;5.696;2024-03-29T12:10:15;15.7;58.5
78461;SHT31;67755;51.986;5.696;2024-03-29T12:12:45;15.7;59.9
78461;SHT31;67755;51.986;5.696;2024-03-29T12:15:16;15.8;58.7
78461;SHT31;67755;51.986;5.696;2024-03-29T12:17:54;15.8;60.3
78461;SHT31;67755;51.986;5.696;2024-03-29T12:20:23;15.8;58.7
78461;SHT31;67755;51.986;5.696;2024-03-29T12:22:52;15.8;56.7
78461;SHT31;67755;51.986;5.696;2024-03-29T12:25:21;15.8;57.0
78461;SHT31;67755;51.986;5.696;2024-03-29T12:27:50;15.9;57.0
78461;SHT31;67755;51.986;5.696;2024-03-29T12:30:19;15.9;56.7
78461;SHT31;67755;51.986;5.696;2024-03-29T12:32:48;15.9;54.8
78461;SHT31;67755;51.986;5.696;2024-03-29T12:35:16;15.9;56.5
78461;SHT31;67755;51.986;5.696;2024-03-29T12:37:51;15.9;55.7
78461;SHT31;67755;51.986;5.696;2024-03-29T12:40:20;15.9;54.4
78461;SHT31;67755;51.986;5.696;2024-03-29T12:42:51;15.9;55.7
78461;SHT31;67755;51.986;5.696;2024-03-29T12:45:22;15.9;56.4
78461;SHT31;67755;51.986;5.696;2024-03-29T12:47:50;15.9;55.4
78461;SHT31;67755;51.986;5.696;2024-03-29T12:50:25;16.0;55.1
78461;SHT31;67755;51.986;5.696;2024-03-29T12:52:56;16.0;53.5
78461;SHT31;67755;51.986;5.696;2024-03-29T12:55:27;16.0;54.9
78461;SHT31;67755;51.986;5.696;2024-03-29T12:57:57;16.1;55.9
78461;SHT31;67755;51.986;5.696;2024-03-29T13:00:27;16.1;53.6
78461;SHT31;67755;51.986;5.696;2024-03-29T13:02:55;16.2;54.1
78461;SHT31;67755;51.986;5.696;2024-03-29T13:05:24;16.2;56.0
78461;SHT31;67755;51.986;5.696;2024-03-29T13:07:56;16.3;55.9
78461;SHT31;67755;51.986;5.696;2024-03-29T13:10:24;16.3;54.7
78461;SHT31;67755;51.986;5.696;2024-03-29T13:12:55;16.4;54.7
78461;SHT31;67755;51.986;5.696;2024-03-29T13:15:25;16.4;54.7
78461;SHT31;67755;51.986;5.696;2024-03-29T13:17:55;16.5;53.4
78461;SHT31;67755;51.986;5.696;2024-03-29T13:20:28;16.5;53.9
78461;SHT31;67755;51.986;5.696;2024-03-29T13:22:59;16.6;53.8
78461;SHT31;67755;51.986;5.696;2024-03-29T13:25:27;16.6;52.7
78461;SHT31;67755;51.986;5.696;2024-03-29T13:27:57;16.6;54.0
78461;SHT31;67755;51.986;5.696;2024-03-29T13:30:26;16.7;52.0
78461;SHT31;67755;51.986;5.696;2024-03-29T13:32:55;16.7;54.3
78461;SHT31;67755;51.986;5.696;2024-03-29T13:35:24;16.8;51.5
78461;SHT31;67755;51.986;5.696;2024-03-29T13:37:52;16.8;53.4
78461;SHT31;67755;51.986;5.696;2024-03-29T13:40:23;16.8;52.5
78461;SHT31;67755;51.986;5.696;2024-03-29T13:42:52;16.9;52.3
78461;SHT31;67755;51.986;5.696;2024-03-29T13:45:21;17.0;52.1
78461;SHT31;67755;51.986;5.696;2024-03-29T13:47:52;17.0;52.3
78461;SHT31;67755;51.986;5.696;2024-03-29T13:50:21;17.1;51.9
78461;SHT31;67755;51.986;5.696;2024-03-29T13:52:51;17.1;50.8
78461;SHT31;67755;51.986;5.696;2024-03-29T13:55:21;17.2;52.0
78461;SHT31;67755;51.986;5.696;2024-03-29T13:57:53;17.3;50.0
78461;SHT31;67755;51.986;5.696;2024-03-29T14:00:23;17.3;50.1
78461;SHT31;67755;51.986;5.696;2024-03-29T14:02:52;17.3;51.3
78461;SHT31;67755;51.986;5.696;2024-03-29T14:05:20;17.4;52.5
78461;SHT31;67755;51.986;5.696;2024-03-29T14:07:48;17.4;51.5
78461;SHT31;67755;51.986;5.696;2024-03-29T14:10:18;17.4;49.9
78461;SHT31;67755;51.986;5.696;2024-03-29T14:12:46;17.4;49.8
78461;SHT31;67755;51.986;5.696;2024-03-29T14:15:18;17.5;49.1
78461;SHT31;67755;51.986;5.696;2024-03-29T14:17:46;17.5;48.6
78461;SHT31;67755;51.986;5.696;2024-03-29T14:20:17;17.5;49.0
78461;SHT31;67755;51.986;5.696;2024-03-29T14:22:47;17.5;48.6
78461;SHT31;67755;51.986;5.696;2024-03-29T14:25:18;17.5;49.3
78461;SHT31;67755;51.986;5.696;2024-03-29T14:27:47;17.5;50.9
78461;SHT31;67755;51.986;5.696;2024-03-29T14:30:20;17.5;48.7
78461;SHT31;67755;51.986;5.696;2024-03-29T14:32:51;17.6;48.4
78461;SHT31;67755;51.986;5.696;2024-03-29T14:35:21;17.6;49.0
78461;SHT31;67755;51.986;5.696;2024-03-29T14:37:52;17.6;47.9
78461;SHT31;67755;51.986;5.696;2024-03-29T14:40:20;17.6;48.2
78461;SHT31;67755;51.986;5.696;2024-03-29T14:42:49;17.6;48.8
78461;SHT31;67755;51.986;5.696;2024-03-29T14:45:17;17.6;48.6
78461;SHT31;67755;51.986;5.696;2024-03-29T14:47:46;17.6;48.4
78461;SHT31;67755;51.986;5.696;2024-03-29T14:50:17;17.6;49.9
78461;SHT31;67755;51.986;5.696;2024-03-29T14:52:45;17.6;48.7
78461;SHT31;67755;51.986;5.696;2024-03-29T14:55:16;17.6;48.0
78461;SHT31;67755;51.986;5.696;2024-03-29T14:57:44;17.6;48.9
78461;SHT31;67755;51.986;5.696;2024-03-29T15:00:13;17.6;48.3
78461;SHT31;67755;51.986;5.696;2024-03-29T15:02:42;17.6;47.9
78461;SHT31;67755;51.986;5.696;2024-03-29T15:05:12;17.6;48.0
78461;SHT31;67755;51.986;5.696;2024-03-29T15:07:42;17.6;48.0
78461;SHT31;67755;51.986;5.696;2024-03-29T15:10:11;17.6;48.6
78461;SHT31;67755;51.986;5.696;2024-03-29T15:12:42;17.6;46.6
78461;SHT31;67755;51.986;5.696;2024-03-29T15:15:13;17.6;47.8
78461;SHT31;67755;51.986;5.696;2024-03-29T15:17:41;17.5;47.0
78461;SHT31;67755;51.986;5.696;2024-03-29T15:20:13;17.5;48.5
78461;SHT31;67755;51.986;5.696;2024-03-29T15:22:42;17.5;49.0
78461;SHT31;67755;51.986;5.696;2024-03-29T15:25:14;17.5;48.6
78461;SHT31;67755;51.986;5.696;2024-03-29T15:27:43;17.5;48.4
78461;SHT31;67755;51.986;5.696;2024-03-29T15:30:29;17.5;47.8
78461;SHT31;67755;51.986;5.696;2024-03-29T15:32:59;17.5;47.2
78461;SHT31;67755;51.986;5.696;2024-03-29T15:35:29;17.5;47.0
78461;SHT31;67755;51.986;5.696;2024-03-29T15:37:57;17.5;47.1
78461;SHT31;67755;51.986;5.696;2024-03-29T15:40:27;17.5;47.6
78461;SHT31;67755;51.986;5.696;2024-03-29T15:42:56;17.5;48.5
78461;SHT31;67755;51.986;5.696;2024-03-29T15:45:24;17.5;46.9
78461;SHT31;67755;51.986;5.696;2024-03-29T15:47:53;17.5;46.6
78461;SHT31;67755;51.986;5.696;2024-03-29T15:50:21;17.5;47.1
78461;SHT31;67755;51.986;5.696;2024-03-29T15:52:50;17.5;46.5
78461;SHT31;67755;51.986;5.696;2024-03-29T15:55:18;17.5;47.3
78461;SHT31;67755;51.986;5.696;2024-03-29T15:57:47;17.5;47.2
78461;SHT31;67755;51.986;5.696;2024-03-29T16:00:16;17.5;46.4
78461;SHT31;67755;51.986;5.696;2024-03-29T16:02:47;17.5;46.3
78461;SHT31;67755;51.986;5.696;2024-03-29T16:05:16;17.5;45.4
78461;SHT31;67755;51.986;5.696;2024-03-29T16:07:46;17.5;45.9
78461;SHT31;67755;51.986;5.696;2024-03-29T16:10:14;17.4;45.2
78461;SHT31;67755;51.986;5.696;2024-03-29T16:12:43;17.4;45.2
78461;SHT31;67755;51.986;5.696;2024-03-29T16:15:12;17.4;46.3
78461;SHT31;67755;51.986;5.696;2024-03-29T16:17:40;17.4;46.3